sensor_id;sensor_type;location;lat;lon;timestamp;pressure;altitude;pressure_sealevel;temperature;humidity
52745;BME280;38637;49.984;20.426;2022-07-25T00:00:21;99627.69;;;17.79;74.79
52745;BME280;38637;49.984;20.426;2022-07-25T00:02:46;99619.44;;;17.74;74.78
52745;BME280;38637;49.984;20.426;2022-07-25T00:05:11;99632.50;;;17.68;75.23
52745;BME280;38637;49.984;20.426;2022-07-25T00:07:37;99626.78;;;17.65;74.68
52745;BME280;38637;49.984;20.426;2022-07-25T00:10:02;99628.81;;;17.59;75.04
52745;BME280;38637;49.984;20.426;2022-07-25T00:12:28;99628.59;;;17.56;75.58
52745;BME280;38637;49.984;20.426;2022-07-25T00:14:53;99628.38;;;17.52;75.84
52745;BME280;38637;49.984;20.426;2022-07-25T00:17:18;99628.16;;;17.49;76.39
52745;BME280;38637;49.984;20.426;2022-07-25T00:19:43;99628.44;;;17.47;76.64
52745;BME280;38637;49.984;20.426;2022-07-25T00:22:09;99624.59;;;17.48;76.29
52745;BME280;38637;49.984;20.426;2022-07-25T00:24:34;99623.47;;;17.49;76.11
52745;BME280;38637;49.984;20.426;2022-07-25T00:26:59;99627.34;;;17.48;75.81
52745;BME280;38637;49.984;20.426;2022-07-25T00:29:24;99630.41;;;17.46;75.96
52745;BME280;38637;49.984;20.426;2022-07-25T00:31:49;99627.72;;;17.41;76.29
52745;BME280;38637;49.984;20.426;2022-07-25T00:34:15;99628.84;;;17.40;76.01
52745;BME280;38637;49.984;20.426;2022-07-25T00:36:40;99600.47;;;17.21;76.07
52745;BME280;38637;49.984;20.426;2022-07-25T00:39:05;99618.47;;;17.32;76.30
52745;BME280;38637;49.984;20.426;2022-07-25T00:41:30;99622.38;;;17.31;75.62
52745;BME280;38637;49.984;20.426;2022-07-25T00:43:55;99626.47;;;17.34;75.73
52745;BME280;38637;49.984;20.426;2022-07-25T00:46:21;99620.41;;;17.32;76.13
52745;BME280;38637;49.984;20.426;2022-07-25T00:48:46;99621.84;;;17.29;75.87
52745;BME280;38637;49.984;20.426;2022-07-25T00:51:12;99622.16;;;17.28;76.03
52745;BME280;38637;49.984;20.426;2022-07-25T00:53:37;99620.81;;;17.25;76.04
52745;BME280;38637;49.984;20.426;2022-07-25T00:56:03;99617.00;;;17.21;75.40
52745;BME280;38637;49.984;20.426;2022-07-25T00:58:29;99614.25;;;17.21;75.20
52745;BME280;38637;49.984;20.426;2022-07-25T01:00:54;99622.31;;;17.17;75.23
52745;BME280;38637;49.984;20.426;2022-07-25T01:03:19;99615.44;;;17.15;75.46
52745;BME280;38637;49.984;20.426;2022-07-25T01:05:45;99612.75;;;17.10;75.13
52745;BME280;38637;49.984;20.426;2022-07-25T01:08:10;99621.03;;;17.10;74.12
52745;BME280;38637;49.984;20.426;2022-07-25T01:10:36;99620.81;;;17.06;75.03
52745;BME280;38637;49.984;20.426;2022-07-25T01:13:01;99615.91;;;17.03;75.00
52745;BME280;38637;49.984;20.426;2022-07-25T01:15:27;99618.72;;;16.98;75.33
52745;BME280;38637;49.984;20.426;2022-07-25T01:17:52;99607.25;;;16.91;75.64
52745;BME280;38637;49.984;20.426;2022-07-25T01:22:43;99613.03;;;16.89;76.43
52745;BME280;38637;49.984;20.426;2022-07-25T01:25:08;99611.72;;;16.87;76.65
52745;BME280;38637;49.984;20.426;2022-07-25T01:27:33;99611.72;;;16.87;76.26
52745;BME280;38637;49.984;20.426;2022-07-25T01:29:59;99614.78;;;16.85;75.43
52745;BME280;38637;49.984;20.426;2022-07-25T01:32:24;99609.25;;;16.85;75.64
52745;BME280;38637;49.984;20.426;2022-07-25T01:34:49;99610.88;;;16.86;75.86
52745;BME280;38637;49.984;20.426;2022-07-25T01:37:14;99605.16;;;16.83;76.21
52745;BME280;38637;49.984;20.426;2022-07-25T01:39:39;99604.34;;;16.82;75.89
52745;BME280;38637;49.984;20.426;2022-07-25T01:42:05;99601.03;;;16.80;76.40
52745;BME280;38637;49.984;20.426;2022-07-25T01:44:30;99599.94;;;16.81;76.12
52745;BME280;38637;49.984;20.426;2022-07-25T01:46:55;99603.50;;;16.82;76.46
52745;BME280;38637;49.984;20.426;2022-07-25T01:49:20;99601.88;;;16.81;76.23
52745;BME280;38637;49.984;20.426;2022-07-25T01:51:46;99604.38;;;16.77;76.14
52745;BME280;38637;49.984;20.426;2022-07-25T01:54:11;99593.41;;;16.72;75.63
52745;BME280;38637;49.984;20.426;2022-07-25T01:56:36;99587.38;;;16.70;75.36
52745;BME280;38637;49.984;20.426;2022-07-25T01:59:06;99591.84;;;16.66;74.92
52745;BME280;38637;49.984;20.426;2022-07-25T02:01:31;99593.25;;;16.63;75.71
52745;BME280;38637;49.984;20.426;2022-07-25T02:03:56;99590.28;;;16.60;75.87
52745;BME280;38637;49.984;20.426;2022-07-25T02:06:21;99585.34;;;16.57;76.18
52745;BME280;38637;49.984;20.426;2022-07-25T02:08:47;99580.44;;;16.53;75.56
52745;BME280;38637;49.984;20.426;2022-07-25T02:11:12;99581.53;;;16.52;75.57
52745;BME280;38637;49.984;20.426;2022-07-25T02:13:37;99583.47;;;16.52;75.16
52745;BME280;38637;49.984;20.426;2022-07-25T02:16:02;99581.63;;;16.47;74.37
52745;BME280;38637;49.984;20.426;2022-07-25T02:18:28;99590.97;;;16.46;75.00
52745;BME280;38637;49.984;20.426;2022-07-25T02:20:53;99588.31;;;16.41;75.56
52745;BME280;38637;49.984;20.426;2022-07-25T02:23:18;99595.22;;;16.39;75.73
52745;BME280;38637;49.984;20.426;2022-07-25T02:25:43;99591.94;;;16.37;76.01
52745;BME280;38637;49.984;20.426;2022-07-25T02:28:09;99589.19;;;16.37;76.14
52745;BME280;38637;49.984;20.426;2022-07-25T02:30:34;99598.25;;;16.37;75.94
52745;BME280;38637;49.984;20.426;2022-07-25T02:32:59;99591.13;;;16.36;75.43
52745;BME280;38637;49.984;20.426;2022-07-25T02:35:24;99588.38;;;16.36;74.78
52745;BME280;38637;49.984;20.426;2022-07-25T02:37:50;99592.75;;;16.37;74.17
52745;BME280;38637;49.984;20.426;2022-07-25T02:40:15;99583.44;;;16.33;74.54
52745;BME280;38637;49.984;20.426;2022-07-25T02:42:40;99589.53;;;16.30;74.45
52745;BME280;38637;49.984;20.426;2022-07-25T02:45:06;99585.16;;;16.29;75.05
52745;BME280;38637;49.984;20.426;2022-07-25T02:47:31;99594.59;;;16.23;75.20
52745;BME280;38637;49.984;20.426;2022-07-25T02:49:56;99595.47;;;16.18;75.51
52745;BME280;38637;49.984;20.426;2022-07-25T02:52:21;99588.31;;;16.17;75.34
52745;BME280;38637;49.984;20.426;2022-07-25T02:54:47;99590.25;;;16.17;75.13
52745;BME280;38637;49.984;20.426;2022-07-25T02:57:12;99588.09;;;16.14;75.36
52745;BME280;38637;49.984;20.426;2022-07-25T02:59:37;99582.56;;;16.14;75.46
52745;BME280;38637;49.984;20.426;2022-07-25T03:02:02;99585.63;;;16.12;75.81
52745;BME280;38637;49.984;20.426;2022-07-25T03:04:27;99587.28;;;16.13;75.65
52745;BME280;38637;49.984;20.426;2022-07-25T03:06:54;99583.41;;;16.14;75.13
52745;BME280;38637;49.984;20.426;2022-07-25T03:09:20;99581.75;;;16.13;75.15
52745;BME280;38637;49.984;20.426;2022-07-25T03:11:45;99581.22;;;16.11;75.17
52745;BME280;38637;49.984;20.426;2022-07-25T03:14:10;99578.75;;;16.09;75.56
52745;BME280;38637;49.984;20.426;2022-07-25T03:16:35;99588.69;;;16.11;75.15
52745;BME280;38637;49.984;20.426;2022-07-25T03:19:00;99585.09;;;16.10;75.20
52745;BME280;38637;49.984;20.426;2022-07-25T03:21:26;99588.91;;;16.14;74.11
52745;BME280;38637;49.984;20.426;2022-07-25T03:23:51;99585.84;;;16.16;74.69
52745;BME280;38637;49.984;20.426;2022-07-25T03:26:16;99596.34;;;16.14;74.26
52745;BME280;38637;49.984;20.426;2022-07-25T03:28:41;99593.06;;;16.12;74.71
52745;BME280;38637;49.984;20.426;2022-07-25T03:31:06;99601.31;;;16.12;74.62
52745;BME280;38637;49.984;20.426;2022-07-25T03:33:32;99605.78;;;16.07;74.21
52745;BME280;38637;49.984;20.426;2022-07-25T03:35:57;99613.53;;;16.05;74.45
52745;BME280;38637;49.984;20.426;2022-07-25T03:38:22;99600.06;;;16.04;74.79
52745;BME280;38637;49.984;20.426;2022-07-25T03:40:48;99605.56;;;16.04;75.17
52745;BME280;38637;49.984;20.426;2022-07-25T03:43:13;99610.75;;;16.05;75.47
52745;BME280;38637;49.984;20.426;2022-07-25T03:45:39;99611.81;;;16.09;75.44
52745;BME280;38637;49.984;20.426;2022-07-25T03:48:04;99607.06;;;16.15;75.23
52745;BME280;38637;49.984;20.426;2022-07-25T03:50:29;99598.94;;;16.29;75.14
52745;BME280;38637;49.984;20.426;2022-07-25T03:52:54;99611.41;;;16.45;74.83
52745;BME280;38637;49.984;20.426;2022-07-25T03:55:20;99609.84;;;16.58;74.58
52745;BME280;38637;49.984;20.426;2022-07-25T03:57:45;99613.53;;;16.72;74.57
52745;BME280;38637;49.984;20.426;2022-07-25T04:00:10;99610.97;;;16.81;74.30
52745;BME280;38637;49.984;20.426;2022-07-25T04:02:36;99605.84;;;16.93;74.06
52745;BME280;38637;49.984;20.426;2022-07-25T04:05:02;99601.78;;;17.05;73.78
52745;BME280;38637;49.984;20.426;2022-07-25T04:07:27;99597.22;;;17.14;73.52
52745;BME280;38637;49.984;20.426;2022-07-25T04:09:53;99595.69;;;17.27;73.28
52745;BME280;38637;49.984;20.426;2022-07-25T04:12:18;99592.97;;;17.40;73.12
52745;BME280;38637;49.984;20.426;2022-07-25T04:14:43;99597.69;;;17.54;73.02
52745;BME280;38637;49.984;20.426;2022-07-25T04:17:08;99593.13;;;17.63;73.06
52745;BME280;38637;49.984;20.426;2022-07-25T04:19:34;99591.28;;;17.72;72.44
52745;BME280;38637;49.984;20.426;2022-07-25T04:21:59;99593.59;;;17.84;72.06
52745;BME280;38637;49.984;20.426;2022-07-25T04:24:24;99597.00;;;17.95;72.03
52745;BME280;38637;49.984;20.426;2022-07-25T04:26:49;99599.56;;;18.05;71.86
52745;BME280;38637;49.984;20.426;2022-07-25T04:29:15;99596.59;;;18.15;71.57
52745;BME280;38637;49.984;20.426;2022-07-25T04:31:40;99587.00;;;18.26;71.29
52745;BME280;38637;49.984;20.426;2022-07-25T04:34:05;99586.28;;;18.34;71.18
52745;BME280;38637;49.984;20.426;2022-07-25T04:36:30;99587.19;;;18.44;71.16
52745;BME280;38637;49.984;20.426;2022-07-25T04:38:55;99576.84;;;18.49;71.10
52745;BME280;38637;49.984;20.426;2022-07-25T04:41:21;99587.69;;;18.59;70.74
52745;BME280;38637;49.984;20.426;2022-07-25T04:43:46;99583.06;;;18.69;71.32
52745;BME280;38637;49.984;20.426;2022-07-25T04:46:11;99580.22;;;18.74;70.87
52745;BME280;38637;49.984;20.426;2022-07-25T04:48:37;99578.47;;;18.78;71.09
52745;BME280;38637;49.984;20.426;2022-07-25T04:51:02;99573.81;;;18.87;71.36
52745;BME280;38637;49.984;20.426;2022-07-25T04:53:27;99565.41;;;18.92;71.39
52745;BME280;38637;49.984;20.426;2022-07-25T04:55:52;99565.97;;;19.03;71.40
52745;BME280;38637;49.984;20.426;2022-07-25T04:58:18;99575.16;;;19.12;71.28
52745;BME280;38637;49.984;20.426;2022-07-25T05:00:43;99566.31;;;19.24;70.90
52745;BME280;38637;49.984;20.426;2022-07-25T05:03:08;99562.97;;;19.36;68.40
52745;BME280;38637;49.984;20.426;2022-07-25T05:05:34;99558.63;;;19.43;67.34
52745;BME280;38637;49.984;20.426;2022-07-25T05:07:59;99557.34;;;19.49;67.91
52745;BME280;38637;49.984;20.426;2022-07-25T05:10:25;99550.75;;;19.59;66.66
52745;BME280;38637;49.984;20.426;2022-07-25T05:12:51;99552.56;;;19.64;66.92
52745;BME280;38637;49.984;20.426;2022-07-25T05:15:16;99558.81;;;19.69;66.96
52745;BME280;38637;49.984;20.426;2022-07-25T05:17:42;99547.59;;;19.74;66.21
52745;BME280;38637;49.984;20.426;2022-07-25T05:20:07;99545.00;;;19.78;64.89
52745;BME280;38637;49.984;20.426;2022-07-25T05:22:33;99549.28;;;19.84;65.16
52745;BME280;38637;49.984;20.426;2022-07-25T05:24:58;99540.50;;;19.91;65.53
52745;BME280;38637;49.984;20.426;2022-07-25T05:27:26;99541.47;;;19.95;65.25
52745;BME280;38637;49.984;20.426;2022-07-25T05:29:51;99536.44;;;19.97;65.73
52745;BME280;38637;49.984;20.426;2022-07-25T05:32:16;99535.16;;;20.03;65.79
52745;BME280;38637;49.984;20.426;2022-07-25T05:34:41;99533.53;;;20.11;65.35
52745;BME280;38637;49.984;20.426;2022-07-25T05:37:07;99525.44;;;20.14;64.52
52745;BME280;38637;49.984;20.426;2022-07-25T05:39:32;99533.28;;;20.21;64.31
52745;BME280;38637;49.984;20.426;2022-07-25T05:41:57;99515.66;;;20.26;64.35
52745;BME280;38637;49.984;20.426;2022-07-25T05:44:22;99525.78;;;20.30;64.40
52745;BME280;38637;49.984;20.426;2022-07-25T05:46:47;99530.34;;;20.35;64.33
52745;BME280;38637;49.984;20.426;2022-07-25T05:49:13;99532.81;;;20.36;65.04
52745;BME280;38637;49.984;20.426;2022-07-25T05:51:39;99536.56;;;20.40;65.11
52745;BME280;38637;49.984;20.426;2022-07-25T05:54:05;99536.28;;;20.42;65.52
52745;BME280;38637;49.984;20.426;2022-07-25T05:56:30;99537.56;;;20.44;64.09
52745;BME280;38637;49.984;20.426;2022-07-25T05:58:55;99536.09;;;20.47;64.44
52745;BME280;38637;49.984;20.426;2022-07-25T06:01:20;99544.59;;;20.51;64.75
52745;BME280;38637;49.984;20.426;2022-07-25T06:03:46;99541.19;;;20.54;63.85
52745;BME280;38637;49.984;20.426;2022-07-25T06:06:12;99545.28;;;20.56;64.44
52745;BME280;38637;49.984;20.426;2022-07-25T06:08:37;99546.28;;;20.60;64.15
52745;BME280;38637;49.984;20.426;2022-07-25T06:11:03;99544.78;;;20.63;63.69
52745;BME280;38637;49.984;20.426;2022-07-25T06:13:30;99544.16;;;20.66;64.94
52745;BME280;38637;49.984;20.426;2022-07-25T06:15:55;99539.25;;;20.72;64.04
52745;BME280;38637;49.984;20.426;2022-07-25T06:18:21;99542.03;;;20.72;63.41
52745;BME280;38637;49.984;20.426;2022-07-25T06:20:46;99531.09;;;20.75;63.86
52745;BME280;38637;49.984;20.426;2022-07-25T06:23:12;99539.28;;;20.80;63.86
52745;BME280;38637;49.984;20.426;2022-07-25T06:25:38;99525.41;;;20.89;63.83
52745;BME280;38637;49.984;20.426;2022-07-25T06:28:03;99529.81;;;20.99;63.63
52745;BME280;38637;49.984;20.426;2022-07-25T06:30:28;99521.81;;;21.06;63.49
52745;BME280;38637;49.984;20.426;2022-07-25T06:32:53;99531.63;;;21.12;61.31
52745;BME280;38637;49.984;20.426;2022-07-25T06:35:19;99533.06;;;21.18;61.97
52745;BME280;38637;49.984;20.426;2022-07-25T06:37:44;99522.78;;;21.27;61.71
52745;BME280;38637;49.984;20.426;2022-07-25T06:40:09;99515.06;;;21.33;62.37
52745;BME280;38637;49.984;20.426;2022-07-25T06:42:38;99520.63;;;21.42;62.15
52745;BME280;38637;49.984;20.426;2022-07-25T06:45:04;99523.88;;;21.52;62.58
52745;BME280;38637;49.984;20.426;2022-07-25T06:47:29;99516.19;;;21.58;61.94
52745;BME280;38637;49.984;20.426;2022-07-25T06:49:54;99516.66;;;21.60;61.08
52745;BME280;38637;49.984;20.426;2022-07-25T06:52:20;99524.47;;;21.67;61.49
52745;BME280;38637;49.984;20.426;2022-07-25T06:54:45;99516.78;;;21.72;60.80
52745;BME280;38637;49.984;20.426;2022-07-25T06:57:10;99521.16;;;21.82;60.42
52745;BME280;38637;49.984;20.426;2022-07-25T06:59:37;99515.91;;;21.89;60.35
52745;BME280;38637;49.984;20.426;2022-07-25T07:02:02;99508.53;;;21.93;60.52
52745;BME280;38637;49.984;20.426;2022-07-25T07:04:28;99505.56;;;21.98;58.93
52745;BME280;38637;49.984;20.426;2022-07-25T07:06:53;99508.97;;;22.04;58.27
52745;BME280;38637;49.984;20.426;2022-07-25T07:09:18;99506.19;;;22.04;58.49
52745;BME280;38637;49.984;20.426;2022-07-25T07:11:43;99498.44;;;22.10;60.04
52745;BME280;38637;49.984;20.426;2022-07-25T07:14:08;99492.06;;;22.18;59.76
52745;BME280;38637;49.984;20.426;2022-07-25T07:16:34;99489.44;;;22.21;59.34
52745;BME280;38637;49.984;20.426;2022-07-25T07:19:00;99481.38;;;22.29;59.30
52745;BME280;38637;49.984;20.426;2022-07-25T07:21:25;99483.63;;;22.35;59.70
52745;BME280;38637;49.984;20.426;2022-07-25T07:23:51;99481.13;;;22.42;58.97
52745;BME280;38637;49.984;20.426;2022-07-25T07:26:16;99488.78;;;22.45;59.22
52745;BME280;38637;49.984;20.426;2022-07-25T07:28:41;99475.69;;;22.46;58.74
52745;BME280;38637;49.984;20.426;2022-07-25T07:31:06;99481.38;;;22.49;59.13
52745;BME280;38637;49.984;20.426;2022-07-25T07:33:32;99477.59;;;22.54;59.69
52745;BME280;38637;49.984;20.426;2022-07-25T07:35:57;99481.44;;;22.62;57.74
52745;BME280;38637;49.984;20.426;2022-07-25T07:38:23;99477.97;;;22.65;58.52
52745;BME280;38637;49.984;20.426;2022-07-25T07:40:48;99466.47;;;22.75;59.44
52745;BME280;38637;49.984;20.426;2022-07-25T07:43:13;99474.50;;;22.89;58.75
52745;BME280;38637;49.984;20.426;2022-07-25T07:45:39;99474.16;;;22.99;58.24
52745;BME280;38637;49.984;20.426;2022-07-25T07:48:05;99456.19;;;23.09;58.69
52745;BME280;38637;49.984;20.426;2022-07-25T07:50:31;99464.66;;;23.12;57.26
52745;BME280;38637;49.984;20.426;2022-07-25T07:52:56;99460.84;;;23.17;57.41
52745;BME280;38637;49.984;20.426;2022-07-25T07:55:22;99457.84;;;23.22;58.02
52745;BME280;38637;49.984;20.426;2022-07-25T07:58:07;99458.91;;;23.30;57.25
52745;BME280;38637;49.984;20.426;2022-07-25T08:00:32;99451.47;;;23.34;57.92
52745;BME280;38637;49.984;20.426;2022-07-25T08:03:00;99453.22;;;23.38;57.10
52745;BME280;38637;49.984;20.426;2022-07-25T08:05:33;99453.81;;;23.44;55.96
52745;BME280;38637;49.984;20.426;2022-07-25T08:07:59;99445.25;;;23.49;55.81
52745;BME280;38637;49.984;20.426;2022-07-25T08:10:26;99459.66;;;23.51;56.11
52745;BME280;38637;49.984;20.426;2022-07-25T08:12:52;99452.34;;;23.59;55.58
52745;BME280;38637;49.984;20.426;2022-07-25T08:15:17;99459.31;;;23.65;51.98
52745;BME280;38637;49.984;20.426;2022-07-25T08:17:43;99453.03;;;23.68;53.13
52745;BME280;38637;49.984;20.426;2022-07-25T08:20:09;99453.03;;;23.68;52.45
52745;BME280;38637;49.984;20.426;2022-07-25T08:22:38;99450.41;;;23.72;51.84
52745;BME280;38637;49.984;20.426;2022-07-25T08:25:04;99452.03;;;23.73;52.22
52745;BME280;38637;49.984;20.426;2022-07-25T08:27:29;99447.75;;;23.75;52.19
52745;BME280;38637;49.984;20.426;2022-07-25T08:29:55;99441.59;;;23.82;51.23
52745;BME280;38637;49.984;20.426;2022-07-25T08:32:20;99443.09;;;23.92;52.43
52745;BME280;38637;49.984;20.426;2022-07-25T08:34:45;99434.94;;;23.99;51.21
52745;BME280;38637;49.984;20.426;2022-07-25T08:37:10;99435.41;;;24.13;52.54
52745;BME280;38637;49.984;20.426;2022-07-25T08:39:36;99447.72;;;24.24;50.59
52745;BME280;38637;49.984;20.426;2022-07-25T08:42:01;99441.44;;;24.27;48.80
52745;BME280;38637;49.984;20.426;2022-07-25T08:44:27;99438.97;;;24.26;48.94
52745;BME280;38637;49.984;20.426;2022-07-25T08:46:55;99432.59;;;24.25;49.25
52745;BME280;38637;49.984;20.426;2022-07-25T08:49:21;99429.09;;;24.28;49.57
52745;BME280;38637;49.984;20.426;2022-07-25T08:51:47;99439.56;;;24.31;49.80
52745;BME280;38637;49.984;20.426;2022-07-25T08:54:12;99435.84;;;24.40;50.85
52745;BME280;38637;49.984;20.426;2022-07-25T08:56:37;99440.03;;;24.46;48.31
52745;BME280;38637;49.984;20.426;2022-07-25T08:59:02;99422.31;;;24.54;48.56
52745;BME280;38637;49.984;20.426;2022-07-25T09:02:01;99431.25;;;24.60;48.20
52745;BME280;38637;49.984;20.426;2022-07-25T09:04:20;99429.25;;;24.60;46.12
52745;BME280;38637;49.984;20.426;2022-07-25T09:06:48;99423.69;;;24.60;46.34
52745;BME280;38637;49.984;20.426;2022-07-25T09:09:14;99427.75;;;24.63;45.82
52745;BME280;38637;49.984;20.426;2022-07-25T09:11:40;99405.41;;;24.63;45.83
52745;BME280;38637;49.984;20.426;2022-07-25T09:14:06;99415.06;;;24.65;46.22
52745;BME280;38637;49.984;20.426;2022-07-25T09:16:32;99408.53;;;24.73;45.52
52745;BME280;38637;49.984;20.426;2022-07-25T09:21:32;99414.97;;;24.90;45.78
52745;BME280;38637;49.984;20.426;2022-07-25T09:24:15;99406.75;;;24.97;45.32
52745;BME280;38637;49.984;20.426;2022-07-25T09:26:44;99412.91;;;25.03;44.20
52745;BME280;38637;49.984;20.426;2022-07-25T09:31:44;99412.28;;;25.09;44.85
52745;BME280;38637;49.984;20.426;2022-07-25T09:34:10;99409.63;;;25.13;45.01
52745;BME280;38637;49.984;20.426;2022-07-25T09:36:36;99391.81;;;25.05;45.30
52745;BME280;38637;49.984;20.426;2022-07-25T09:39:04;99412.16;;;25.18;45.70
52745;BME280;38637;49.984;20.426;2022-07-25T09:41:34;99408.28;;;25.23;44.00
52745;BME280;38637;49.984;20.426;2022-07-25T09:43:59;99401.28;;;25.29;43.81
52745;BME280;38637;49.984;20.426;2022-07-25T09:46:31;99400.72;;;25.39;45.29
52745;BME280;38637;49.984;20.426;2022-07-25T09:48:56;99395.47;;;25.37;42.48
52745;BME280;38637;49.984;20.426;2022-07-25T09:51:22;99392.06;;;25.44;42.90
52745;BME280;38637;49.984;20.426;2022-07-25T09:53:48;99391.78;;;25.49;41.73
52745;BME280;38637;49.984;20.426;2022-07-25T09:56:13;99385.66;;;25.43;41.72
52745;BME280;38637;49.984;20.426;2022-07-25T09:58:39;99391.53;;;25.38;41.90
52745;BME280;38637;49.984;20.426;2022-07-25T10:01:05;99379.53;;;25.38;41.72
52745;BME280;38637;49.984;20.426;2022-07-25T10:06:25;99383.41;;;25.49;43.36
52745;BME280;38637;49.984;20.426;2022-07-25T10:08:52;99378.00;;;25.56;40.91
52745;BME280;38637;49.984;20.426;2022-07-25T10:11:18;99374.91;;;25.61;41.42
52745;BME280;38637;49.984;20.426;2022-07-25T10:13:44;99370.66;;;25.67;41.89
52745;BME280;38637;49.984;20.426;2022-07-25T10:16:16;99372.09;;;25.77;40.76
52745;BME280;38637;49.984;20.426;2022-07-25T10:18:52;99367.13;;;25.71;40.56
52745;BME280;38637;49.984;20.426;2022-07-25T10:21:18;99361.53;;;25.71;40.85
52745;BME280;38637;49.984;20.426;2022-07-25T10:23:43;99356.88;;;25.75;41.41
52745;BME280;38637;49.984;20.426;2022-07-25T10:28:38;99354.25;;;25.82;40.10
52745;BME280;38637;49.984;20.426;2022-07-25T10:31:13;99350.09;;;25.76;40.50
52745;BME280;38637;49.984;20.426;2022-07-25T10:33:39;99352.97;;;25.79;41.41
52745;BME280;38637;49.984;20.426;2022-07-25T10:36:05;99347.53;;;25.86;40.55
52745;BME280;38637;49.984;20.426;2022-07-25T10:38:31;99344.41;;;25.88;41.14
52745;BME280;38637;49.984;20.426;2022-07-25T10:40:56;99344.47;;;25.92;42.02
52745;BME280;38637;49.984;20.426;2022-07-25T10:43:25;99336.63;;;25.97;41.32
52745;BME280;38637;49.984;20.426;2022-07-25T10:45:52;99338.22;;;25.98;42.07
52745;BME280;38637;49.984;20.426;2022-07-25T10:48:21;99334.28;;;25.99;41.85
52745;BME280;38637;49.984;20.426;2022-07-25T10:50:48;99339.03;;;25.99;40.09
52745;BME280;38637;49.984;20.426;2022-07-25T10:53:13;99345.00;;;25.97;40.41
52745;BME280;38637;49.984;20.426;2022-07-25T10:55:39;99336.22;;;25.99;41.71
52745;BME280;38637;49.984;20.426;2022-07-25T10:58:04;99335.88;;;26.00;42.14
52745;BME280;38637;49.984;20.426;2022-07-25T11:00:31;99330.34;;;26.04;41.14
52745;BME280;38637;49.984;20.426;2022-07-25T11:02:56;99324.47;;;26.09;39.22
52745;BME280;38637;49.984;20.426;2022-07-25T11:05:22;99326.53;;;26.12;40.16
52745;BME280;38637;49.984;20.426;2022-07-25T11:07:51;99326.63;;;26.16;39.80
52745;BME280;38637;49.984;20.426;2022-07-25T11:10:23;99319.94;;;26.20;41.37
52745;BME280;38637;49.984;20.426;2022-07-25T11:12:49;99319.47;;;26.18;37.89
52745;BME280;38637;49.984;20.426;2022-07-25T11:15:14;99319.03;;;26.16;38.98
52745;BME280;38637;49.984;20.426;2022-07-25T11:17:47;99308.34;;;26.22;40.36
52745;BME280;38637;49.984;20.426;2022-07-25T11:20:14;99309.97;;;26.23;37.65
52745;BME280;38637;49.984;20.426;2022-07-25T11:22:40;99292.44;;;26.26;40.96
52745;BME280;38637;49.984;20.426;2022-07-25T11:27:34;99277.03;;;26.35;40.31
52745;BME280;38637;49.984;20.426;2022-07-25T11:30:12;99275.06;;;26.36;38.53
52745;BME280;38637;49.984;20.426;2022-07-25T11:32:39;99285.06;;;26.37;37.63
52745;BME280;38637;49.984;20.426;2022-07-25T11:35:05;99278.72;;;26.40;37.64
52745;BME280;38637;49.984;20.426;2022-07-25T11:37:32;99277.41;;;26.34;37.85
52745;BME280;38637;49.984;20.426;2022-07-25T11:39:57;99279.84;;;26.35;37.71
52745;BME280;38637;49.984;20.426;2022-07-25T11:42:23;99276.59;;;26.33;36.67
52745;BME280;38637;49.984;20.426;2022-07-25T11:44:51;99271.34;;;26.32;37.88
52745;BME280;38637;49.984;20.426;2022-07-25T11:47:27;99259.41;;;26.35;37.79
52745;BME280;38637;49.984;20.426;2022-07-25T11:49:53;99265.47;;;26.37;39.05
52745;BME280;38637;49.984;20.426;2022-07-25T11:52:20;99263.19;;;26.43;39.05
52745;BME280;38637;49.984;20.426;2022-07-25T11:54:55;99257.63;;;26.46;38.61
52745;BME280;38637;49.984;20.426;2022-07-25T11:57:24;99257.78;;;26.53;41.04
52745;BME280;38637;49.984;20.426;2022-07-25T11:59:50;99248.28;;;26.58;38.53
52745;BME280;38637;49.984;20.426;2022-07-25T12:02:26;99253.50;;;26.59;39.24
52745;BME280;38637;49.984;20.426;2022-07-25T12:04:52;99243.25;;;26.67;38.63
52745;BME280;38637;49.984;20.426;2022-07-25T12:07:17;99243.75;;;26.73;39.48
52745;BME280;38637;49.984;20.426;2022-07-25T12:09:43;99252.16;;;26.73;38.96
52745;BME280;38637;49.984;20.426;2022-07-25T12:12:18;99238.22;;;26.76;38.60
52745;BME280;38637;49.984;20.426;2022-07-25T12:14:43;99230.25;;;26.78;39.40
52745;BME280;38637;49.984;20.426;2022-07-25T12:17:09;99232.66;;;26.80;38.92
52745;BME280;38637;49.984;20.426;2022-07-25T12:19:34;99233.91;;;26.83;36.98
52745;BME280;38637;49.984;20.426;2022-07-25T12:21:59;99220.25;;;26.81;37.15
52745;BME280;38637;49.984;20.426;2022-07-25T12:24:24;99220.72;;;26.83;37.99
52745;BME280;38637;49.984;20.426;2022-07-25T12:26:50;99218.72;;;26.84;37.90
52745;BME280;38637;49.984;20.426;2022-07-25T12:29:15;99214.84;;;26.92;38.95
52745;BME280;38637;49.984;20.426;2022-07-25T12:31:40;99207.34;;;26.99;38.31
52745;BME280;38637;49.984;20.426;2022-07-25T12:34:05;99206.59;;;27.02;36.86
52745;BME280;38637;49.984;20.426;2022-07-25T12:36:31;99202.63;;;27.03;37.29
52745;BME280;38637;49.984;20.426;2022-07-25T12:38:58;99210.28;;;27.07;33.87
52745;BME280;38637;49.984;20.426;2022-07-25T12:41:23;99199.84;;;27.03;36.40
52745;BME280;38637;49.984;20.426;2022-07-25T12:43:49;99202.19;;;27.01;35.26
52745;BME280;38637;49.984;20.426;2022-07-25T12:46:14;99195.34;;;26.99;36.56
52745;BME280;38637;49.984;20.426;2022-07-25T12:48:40;99187.81;;;27.03;38.38
52745;BME280;38637;49.984;20.426;2022-07-25T12:51:05;99191.09;;;27.09;38.19
52745;BME280;38637;49.984;20.426;2022-07-25T12:53:30;99180.31;;;27.11;35.21
52745;BME280;38637;49.984;20.426;2022-07-25T12:55:55;99189.53;;;27.11;36.69
52745;BME280;38637;49.984;20.426;2022-07-25T12:58:21;99179.94;;;27.12;36.29